Time;durP1;ratioP1;P1;durP2;ratioP2;P2;SDS_P1;SDS_P2;PMS_P1;PMS_P2;Temp;Humidity;BMP_temperature;BMP_pressure;BME280_temperature;BME280_humidity;BME280_pressure;Samples;Min_cycle;Max_cycle;Signal;HPM_P1;HPM_P2
2021/07/26 00:02:03;;;;;;;4.05;3.15;;;18.30;99.90;;;;;;5071504;28;20295;-60
2021/07/26 00:04:30;;;;;;;3.13;2.83;;;18.30;99.90;;;;;;5071526;28;20205;-61
2021/07/26 00:06:58;;;;;;;5.03;3.03;;;18.20;99.90;;;;;;5071269;28;20252;-61
2021/07/26 00:09:25;;;;;;;3.70;3.00;;;18.20;99.90;;;;;;5070925;28;20208;-60
2021/07/26 00:11:51;;;;;;;4.47;2.97;;;18.10;99.90;;;;;;5071353;28;20263;-61
2021/07/26 00:14:18;;;;;;;5.63;3.30;;;18.10;99.90;;;;;;5071062;28;20230;-61
2021/07/26 00:16:45;;;;;;;4.85;3.03;;;18.10;99.90;;;;;;5071073;28;20221;-60
2021/07/26 00:19:11;;;;;;;4.78;3.40;;;18.30;99.90;;;;;;5070957;28;20228;-60
2021/07/26 00:21:38;;;;;;;5.43;3.25;;;18.30;99.90;;;;;;5071356;28;20205;-62
2021/07/26 00:24:06;;;;;;;5.45;2.90;;;18.30;99.90;;;;;;5069986;28;20236;-61
2021/07/26 00:26:33;;;;;;;3.80;3.00;;;18.30;99.90;;;;;;5071128;28;20224;-61
2021/07/26 00:29:00;;;;;;;4.13;3.22;;;18.20;99.90;;;;;;5070976;28;20278;-60
2021/07/26 00:31:26;;;;;;;6.53;3.33;;;18.20;99.90;;;;;;5071110;28;20205;-61
2021/07/26 00:34:14;;;;;;;4.13;3.03;;;18.30;99.90;;;;;;5070963;28;20209;-61
2021/07/26 00:36:42;;;;;;;4.32;3.20;;;18.40;99.90;;;;;;5070834;28;20252;-61
2021/07/26 00:39:12;;;;;;;4.18;3.45;;;18.50;99.90;;;;;;5070883;28;20208;-61
2021/07/26 00:41:40;;;;;;;7.25;3.53;;;18.50;99.90;;;;;;5071468;28;20209;-61
2021/07/26 00:44:07;;;;;;;4.78;3.20;;;18.60;99.90;;;;;;5071559;28;20234;-61
2021/07/26 00:46:34;;;;;;;5.45;3.15;;;18.70;99.90;;;;;;5071431;28;20221;-61
2021/07/26 00:49:03;;;;;;;3.97;3.05;;;18.70;99.90;;;;;;5071654;28;20644;-60
2021/07/26 00:51:31;;;;;;;3.50;3.20;;;18.80;99.90;;;;;;5071327;28;20212;-61
2021/07/26 00:53:58;;;;;;;5.40;3.28;;;18.80;99.90;;;;;;5071291;28;20208;-60
2021/07/26 00:56:26;;;;;;;4.65;3.20;;;18.90;99.90;;;;;;5071191;28;20224;-61
2021/07/26 00:58:53;;;;;;;4.38;3.50;;;18.90;99.90;;;;;;5071029;28;20691;-61
2021/07/26 01:01:19;;;;;;;3.47;3.13;;;18.90;99.90;;;;;;5070687;28;20215;-61
2021/07/26 01:03:46;;;;;;;4.30;3.08;;;18.90;99.90;;;;;;5070440;28;20205;-60
2021/07/26 01:06:13;;;;;;;4.30;3.03;;;18.90;99.90;;;;;;5070574;28;20628;-61
2021/07/26 01:08:40;;;;;;;4.00;2.85;;;18.80;99.90;;;;;;5070429;28;20735;-61
2021/07/26 01:11:07;;;;;;;3.85;3.15;;;18.80;99.90;;;;;;5070585;28;20204;-61
2021/07/26 01:13:36;;;;;;;7.47;3.08;;;18.70;99.90;;;;;;5070385;28;20232;-61
2021/07/26 01:16:04;;;;;;;4.93;3.55;;;18.70;99.90;;;;;;5070282;28;20232;-62
2021/07/26 01:18:32;;;;;;;5.75;3.30;;;18.60;99.90;;;;;;5070822;28;20291;-61
2021/07/26 01:21:00;;;;;;;6.93;3.15;;;18.60;99.90;;;;;;5070622;28;20263;-60
2021/07/26 01:23:29;;;;;;;6.40;3.55;;;18.50;99.90;;;;;;5070427;28;20205;-61
2021/07/26 01:25:56;;;;;;;3.58;3.20;;;18.50;99.90;;;;;;5070500;28;20236;-61
2021/07/26 01:28:28;;;;;;;4.55;3.38;;;18.40;99.90;;;;;;5070335;28;20225;-61
2021/07/26 01:30:55;;;;;;;6.18;3.20;;;18.40;99.90;;;;;;5070359;28;20588;-61
2021/07/26 01:33:22;;;;;;;4.78;3.35;;;18.50;99.90;;;;;;5070627;28;20299;-61
2021/07/26 01:35:48;;;;;;;6.85;3.63;;;18.50;99.90;;;;;;5072528;28;20229;-61
2021/07/26 01:38:16;;;;;;;4.40;3.38;;;18.50;99.90;;;;;;5073780;28;20699;-62
2021/07/26 01:40:45;;;;;;;4.45;3.00;;;18.50;99.90;;;;;;5074004;28;20212;-62
2021/07/26 01:43:11;;;;;;;3.63;3.10;;;18.50;99.90;;;;;;5073975;28;20228;-62
2021/07/26 01:45:39;;;;;;;7.88;3.25;;;18.50;99.90;;;;;;5073593;28;20777;-62
2021/07/26 01:48:12;;;;;;;5.13;3.30;;;18.50;99.90;;;;;;5073848;28;20224;-62
2021/07/26 01:50:44;;;;;;;7.95;3.58;;;18.50;99.90;;;;;;5073840;28;20201;-62
2021/07/26 01:53:11;;;;;;;6.20;3.45;;;18.50;99.90;;;;;;5073773;28;20209;-61
2021/07/26 01:55:39;;;;;;;6.43;3.20;;;18.60;99.90;;;;;;5073322;28;20275;-62
2021/07/26 01:58:06;;;;;;;4.00;3.20;;;18.60;99.90;;;;;;5073423;28;20258;-61
2021/07/26 02:00:33;;;;;;;3.90;3.35;;;18.70;99.90;;;;;;5073547;28;20632;-60
2021/07/26 02:03:00;;;;;;;5.07;3.58;;;18.60;99.90;;;;;;5073589;28;20213;-60
2021/07/26 02:05:27;;;;;;;4.20;3.40;;;18.60;99.90;;;;;;5073221;28;20739;-60
2021/07/26 02:07:54;;;;;;;4.25;3.38;;;18.60;99.90;;;;;;5073195;28;20648;-60
2021/07/26 02:10:22;;;;;;;5.40;3.67;;;18.70;99.90;;;;;;5073896;28;20217;-60
2021/07/26 02:12:50;;;;;;;3.90;3.55;;;18.60;99.90;;;;;;5073608;28;20205;-60
2021/07/26 02:15:17;;;;;;;5.88;3.60;;;18.70;99.90;;;;;;5073228;28;20233;-60
2021/07/26 02:17:43;;;;;;;5.18;3.50;;;18.70;99.90;;;;;;5073258;28;20201;-61
2021/07/26 02:20:11;;;;;;;5.45;3.45;;;18.70;99.90;;;;;;5073425;28;20205;-59
2021/07/26 02:22:38;;;;;;;5.88;3.45;;;18.70;99.90;;;;;;5073183;28;20208;-60
2021/07/26 02:25:05;;;;;;;7.70;3.30;;;18.70;99.90;;;;;;5073210;28;20220;-60
2021/07/26 02:27:32;;;;;;;6.60;3.60;;;18.80;99.90;;;;;;5073227;28;20204;-61
2021/07/26 02:30:00;;;;;;;5.15;3.35;;;18.80;99.90;;;;;;5073477;28;20208;-60
2021/07/26 02:32:27;;;;;;;4.72;3.25;;;18.80;99.90;;;;;;5073008;28;20205;-60
2021/07/26 02:34:53;;;;;;;3.90;3.50;;;18.80;99.90;;;;;;5072812;28;20262;-61
2021/07/26 02:37:20;;;;;;;4.07;3.35;;;18.80;99.90;;;;;;5072657;28;20232;-60
2021/07/26 02:39:47;;;;;;;4.53;2.92;;;18.70;99.90;;;;;;5073045;28;20212;-61
2021/07/26 02:42:13;;;;;;;7.65;3.65;;;18.70;99.90;;;;;;5072955;28;20204;-60
2021/07/26 02:44:40;;;;;;;4.55;3.42;;;18.60;99.90;;;;;;5072814;28;20262;-61
2021/07/26 02:47:08;;;;;;;4.28;3.42;;;18.60;99.90;;;;;;5071902;28;20255;-60
2021/07/26 02:49:35;;;;;;;4.90;3.38;;;18.60;99.90;;;;;;5072556;28;20229;-61
2021/07/26 02:52:01;;;;;;;4.20;3.38;;;18.50;99.90;;;;;;5072564;28;20209;-61
2021/07/26 02:54:28;;;;;;;4.68;3.40;;;18.40;99.90;;;;;;5072845;28;20209;-61
2021/07/26 02:56:55;;;;;;;5.00;3.70;;;18.40;99.90;;;;;;5073113;28;20255;-61
2021/07/26 02:59:21;;;;;;;6.25;3.70;;;18.30;99.90;;;;;;5072987;28;20394;-61
2021/07/26 03:01:49;;;;;;;4.75;3.58;;;18.30;99.90;;;;;;5072590;28;20209;-61
2021/07/26 03:04:17;;;;;;;5.18;3.20;;;18.40;99.90;;;;;;5072138;28;20208;-60
2021/07/26 03:06:44;;;;;;;4.38;3.40;;;18.40;99.90;;;;;;5072611;28;20221;-61
2021/07/26 03:09:11;;;;;;;5.90;3.70;;;18.40;99.90;;;;;;5072510;28;20255;-60
2021/07/26 03:11:37;;;;;;;3.33;3.03;;;18.40;99.90;;;;;;5072251;28;20208;-61
2021/07/26 03:14:04;;;;;;;6.05;3.47;;;18.30;99.90;;;;;;5071988;28;20205;-61
2021/07/26 03:16:31;;;;;;;3.92;2.97;;;18.30;99.90;;;;;;5072100;28;20225;-61
2021/07/26 03:18:57;;;;;;;4.78;3.17;;;18.30;99.90;;;;;;5071614;28;20204;-61
2021/07/26 03:21:25;;;;;;;4.03;3.38;;;18.30;99.90;;;;;;5072323;28;20262;-62
2021/07/26 03:23:53;;;;;;;5.15;3.05;;;18.30;99.90;;;;;;5071891;28;20212;-61
2021/07/26 03:26:19;;;;;;;4.80;3.20;;;18.40;99.90;;;;;;5072077;28;20286;-61
2021/07/26 03:28:46;;;;;;;5.15;3.28;;;18.30;99.90;;;;;;5072000;28;20217;-62
2021/07/26 03:31:13;;;;;;;5.95;3.50;;;18.30;99.90;;;;;;5071821;28;20233;-62
2021/07/26 03:33:39;;;;;;;6.63;3.10;;;18.40;99.90;;;;;;5071550;28;20200;-60
2021/07/26 03:36:07;;;;;;;4.10;3.08;;;18.40;99.90;;;;;;5071678;28;20727;-62
2021/07/26 03:38:35;;;;;;;5.70;3.20;;;18.50;99.90;;;;;;5070876;28;20232;-62
2021/07/26 03:41:01;;;;;;;4.88;3.25;;;18.50;99.90;;;;;;5070938;28;20262;-62
2021/07/26 03:43:30;;;;;;;5.05;3.20;;;18.50;99.90;;;;;;5070668;28;20205;-63
2021/07/26 03:45:56;;;;;;;6.28;3.35;;;18.50;99.90;;;;;;5070652;28;20431;-62
2021/07/26 03:48:23;;;;;;;7.45;3.45;;;18.60;99.90;;;;;;5071203;28;20232;-62
2021/07/26 03:50:50;;;;;;;4.47;3.40;;;18.50;99.90;;;;;;5070805;28;20209;-63
2021/07/26 03:53:17;;;;;;;6.07;3.20;;;18.40;99.90;;;;;;5070733;28;20205;-62
2021/07/26 03:55:45;;;;;;;3.63;2.95;;;18.40;99.90;;;;;;5070893;28;20311;-62
2021/07/26 03:58:12;;;;;;;4.03;3.30;;;18.30;99.90;;;;;;5070416;28;20212;-62
2021/07/26 04:00:39;;;;;;;5.03;3.35;;;18.30;99.90;;;;;;5070434;28;20258;-62
2021/07/26 04:03:11;;;;;;;6.22;3.42;;;18.30;99.90;;;;;;5071217;28;20213;-62
2021/07/26 04:05:40;;;;;;;4.70;3.50;;;18.30;99.90;;;;;;5070757;28;20260;-62
2021/07/26 04:08:12;;;;;;;8.65;3.90;;;18.40;99.90;;;;;;5071055;28;20253;-62
2021/07/26 04:10:41;;;;;;;3.40;2.92;;;18.50;99.90;;;;;;5070914;28;20220;-62
2021/07/26 04:13:09;;;;;;;3.92;3.05;;;18.60;99.90;;;;;;5070777;28;20300;-62
2021/07/26 04:15:36;;;;;;;4.55;3.13;;;18.60;99.90;;;;;;5070802;28;20225;-62
2021/07/26 04:18:02;;;;;;;4.78;3.30;;;18.60;99.90;;;;;;5070138;28;20676;-62
2021/07/26 04:20:29;;;;;;;3.72;3.13;;;18.60;99.90;;;;;;5070314;28;20275;-62
2021/07/26 04:22:57;;;;;;;4.15;3.20;;;18.70;99.90;;;;;;5070128;28;20205;-62
2021/07/26 04:25:23;;;;;;;3.75;3.20;;;18.80;99.90;;;;;;5069727;28;20742;-62
2021/07/26 04:27:50;;;;;;;4.43;3.55;;;18.90;99.90;;;;;;5069975;28;20209;-62
2021/07/26 04:30:18;;;;;;;7.88;3.35;;;19.00;99.90;;;;;;5070170;28;20350;-62
2021/07/26 04:32:46;;;;;;;3.78;3.38;;;19.10;99.90;;;;;;5070141;28;20277;-62
2021/07/26 04:35:14;;;;;;;4.13;3.23;;;19.20;99.90;;;;;;5033753;28;1027008;-62
2021/07/26 04:37:41;;;;;;;5.05;3.13;;;19.30;99.90;;;;;;5070767;28;20209;-62
2021/07/26 04:40:10;;;;;;;5.07;3.28;;;19.50;99.90;;;;;;5070587;28;20227;-61
2021/07/26 04:42:37;;;;;;;4.90;3.22;;;19.50;99.90;;;;;;5070584;28;20208;-61
2021/07/26 04:45:05;;;;;;;5.85;3.50;;;19.60;99.90;;;;;;5070313;28;20669;-62
2021/07/26 04:47:33;;;;;;;4.07;3.05;;;19.70;99.90;;;;;;5070752;28;20205;-62
2021/07/26 04:49:59;;;;;;;4.30;3.42;;;19.70;99.90;;;;;;5070527;28;20251;-62
2021/07/26 04:52:26;;;;;;;3.83;2.83;;;19.70;99.90;;;;;;5070408;28;20213;-61
2021/07/26 04:54:53;;;;;;;3.72;3.10;;;19.70;99.90;;;;;;5070214;28;20254;-62
2021/07/26 04:57:20;;;;;;;5.32;3.08;;;19.70;99.90;;;;;;5070212;28;20292;-62
2021/07/26 04:59:46;;;;;;;4.18;3.25;;;19.80;99.90;;;;;;5070354;28;20204;-61
2021/07/26 05:02:13;;;;;;;7.20;3.30;;;19.80;99.90;;;;;;5070305;28;20204;-62
2021/07/26 05:04:41;;;;;;;5.20;3.30;;;19.90;99.90;;;;;;5070252;28;20213;-61
2021/07/26 05:07:08;;;;;;;4.45;3.10;;;19.90;99.90;;;;;;5070240;28;20228;-61
2021/07/26 05:09:39;;;;;;;7.60;3.10;;;20.00;99.90;;;;;;5070433;28;20588;-62
2021/07/26 05:12:07;;;;;;;3.70;3.10;;;20.10;99.90;;;;;;5074367;28;20239;-61
2021/07/26 05:14:34;;;;;;;3.67;3.22;;;20.20;99.90;;;;;;5073890;28;20756;-61
2021/07/26 05:17:01;;;;;;;8.95;3.50;;;20.30;99.90;;;;;;5074324;28;20229;-62
2021/07/26 05:19:27;;;;;;;5.75;3.40;;;20.30;99.90;;;;;;5074068;28;20204;-62
2021/07/26 05:21:55;;;;;;;4.35;3.50;;;20.40;99.90;;;;;;5074138;28;20254;-62
2021/07/26 05:24:24;;;;;;;4.93;3.53;;;20.40;99.90;;;;;;5074503;28;20205;-62
2021/07/26 05:26:58;;;;;;;3.40;3.10;;;20.40;99.90;;;;;;5074066;28;20600;-62
2021/07/26 05:29:25;;;;;;;6.57;3.17;;;20.50;99.90;;;;;;5073943;28;20315;-62
2021/07/26 05:31:51;;;;;;;4.18;3.17;;;20.60;99.90;;;;;;5073881;28;20208;-62
2021/07/26 05:34:18;;;;;;;5.22;3.80;;;20.70;99.90;;;;;;5073736;28;20287;-62
2021/07/26 05:36:45;;;;;;;7.25;3.30;;;20.80;99.90;;;;;;5073730;28;20233;-62
2021/07/26 05:39:13;;;;;;;4.30;3.45;;;21.00;99.90;;;;;;5073997;28;20254;-62
2021/07/26 05:41:39;;;;;;;4.38;3.50;;;21.10;99.90;;;;;;5073802;28;20201;-62
2021/07/26 05:44:06;;;;;;;6.30;3.58;;;21.10;99.90;;;;;;5073625;28;20201;-62
2021/07/26 05:46:33;;;;;;;5.25;3.00;;;21.00;99.90;;;;;;5073427;28;20229;-62
2021/07/26 05:49:00;;;;;;;3.60;2.95;;;20.70;99.90;;;;;;5073170;28;20620;-62
2021/07/26 05:51:26;;;;;;;4.60;3.20;;;20.80;99.90;;;;;;5073740;28;20623;-62
2021/07/26 05:53:53;;;;;;;6.32;3.28;;;20.60;99.90;;;;;;5073561;28;20262;-62
2021/07/26 05:56:21;;;;;;;5.78;3.10;;;20.70;99.90;;;;;;5073640;28;20259;-62
2021/07/26 05:58:49;;;;;;;4.57;3.30;;;21.00;99.90;;;;;;5073389;28;20215;-62
2021/07/26 06:01:35;;;;;;;3.65;2.95;;;21.30;99.90;;;;;;5073755;28;20209;-62
2021/07/26 06:04:02;;;;;;;7.75;3.50;;;21.60;99.90;;;;;;5073308;28;20883;-62
2021/07/26 06:06:28;;;;;;;5.45;3.25;;;21.80;99.90;;;;;;5073189;28;20259;-62
2021/07/26 06:08:55;;;;;;;5.28;3.08;;;22.10;99.90;;;;;;5073072;28;20225;-62
2021/07/26 06:11:23;;;;;;;7.00;3.03;;;22.60;99.90;;;;;;5073285;28;20232;-62
2021/07/26 06:13:50;;;;;;;4.38;2.90;;;24.10;99.90;;;;;;5072953;28;20338;-62
2021/07/26 06:16:18;;;;;;;5.05;3.00;;;26.60;99.90;;;;;;5073049;28;20235;-62
2021/07/26 06:18:45;;;;;;;3.58;2.60;;;29.00;99.90;;;;;;5073423;28;20233;-62
2021/07/26 06:21:12;;;;;;;4.75;3.30;;;31.20;99.90;;;;;;5072190;28;20231;-62
2021/07/26 06:23:38;;;;;;;3.45;2.60;;;33.10;99.90;;;;;;5072813;28;20269;-63
2021/07/26 06:26:06;;;;;;;4.53;2.85;;;34.30;95.60;;;;;;5072872;28;20235;-63
2021/07/26 06:28:35;;;;;;;3.80;2.78;;;35.20;91.60;;;;;;5072677;28;20739;-62
2021/07/26 06:31:03;;;;;;;7.05;2.67;;;36.20;86.40;;;;;;5072785;28;20208;-63
2021/07/26 06:33:30;;;;;;;3.22;2.15;;;37.10;79.10;;;;;;5072592;28;20205;-63
2021/07/26 06:35:57;;;;;;;3.83;2.90;;;38.10;70.70;;;;;;5072272;28;20239;-63
2021/07/26 06:38:23;;;;;;;5.53;2.50;;;38.60;67.00;;;;;;5072727;28;20581;-61
2021/07/26 06:40:50;;;;;;;4.35;2.60;;;39.20;65.50;;;;;;5072751;28;20209;-60
2021/07/26 06:43:17;;;;;;;2.50;2.30;;;39.80;60.40;;;;;;5072854;28;20284;-65
2021/07/26 06:45:45;;;;;;;8.52;3.00;;;40.40;59.20;;;;;;5073058;28;20229;-61
2021/07/26 06:48:11;;;;;;;4.43;2.63;;;40.60;56.70;;;;;;5072792;28;20201;-61
2021/07/26 06:50:39;;;;;;;4.40;2.63;;;40.10;55.60;;;;;;5072698;28;20225;-60
2021/07/26 06:53:06;;;;;;;9.43;3.08;;;39.30;56.80;;;;;;5072557;28;20254;-61
2021/07/26 06:55:33;;;;;;;5.30;2.67;;;39.20;57.80;;;;;;5072036;28;20274;-61
2021/07/26 06:58:00;;;;;;;5.22;2.50;;;39.90;55.40;;;;;;5072031;28;20339;-61
2021/07/26 07:00:26;;;;;;;6.85;2.70;;;39.80;54.90;;;;;;5072077;28;20247;-61
2021/07/26 07:02:54;;;;;;;4.78;2.72;;;39.70;56.10;;;;;;5072180;28;20208;-61
2021/07/26 07:05:21;;;;;;;8.52;2.83;;;40.70;54.50;;;;;;5072059;28;20221;-61
2021/07/26 07:07:48;;;;;;;9.25;2.60;;;41.30;52.90;;;;;;5072403;28;20675;-61
2021/07/26 07:10:14;;;;;;;2.85;2.47;;;40.70;52.60;;;;;;5072378;28;20221;-61
2021/07/26 07:12:41;;;;;;;5.18;2.50;;;39.70;54.60;;;;;;5072125;28;20201;-60
2021/07/26 07:15:09;;;;;;;5.15;2.58;;;39.00;55.70;;;;;;5072054;28;20205;-61
2021/07/26 07:17:36;;;;;;;11.18;6.65;;;38.70;55.60;;;;;;5072096;28;20214;-61
2021/07/26 07:20:04;;;;;;;6.18;2.80;;;38.40;57.00;;;;;;5071825;28;20201;-60
2021/07/26 07:22:31;;;;;;;3.70;2.60;;;37.90;56.40;;;;;;5072554;28;20212;-61
2021/07/26 07:24:58;;;;;;;6.57;2.35;;;37.20;57.50;;;;;;5071782;28;20212;-61
2021/07/26 07:27:24;;;;;;;4.55;3.08;;;36.70;58.70;;;;;;5072158;28;20205;-68
2021/07/26 07:29:51;;;;;;;5.75;2.85;;;37.00;58.80;;;;;;5071488;28;20704;-63
2021/07/26 07:32:18;;;;;;;3.97;2.67;;;37.40;57.90;;;;;;5071658;28;20208;-62
2021/07/26 07:34:44;;;;;;;5.28;2.67;;;37.40;57.60;;;;;;5071950;28;20270;-63
2021/07/26 07:37:12;;;;;;;4.30;2.70;;;37.40;57.80;;;;;;5071348;28;20239;-63
2021/07/26 07:39:39;;;;;;;3.03;2.13;;;37.60;56.90;;;;;;5071830;28;20204;-63
2021/07/26 07:42:06;;;;;;;3.42;2.45;;;38.30;55.90;;;;;;5071760;28;20204;-63
2021/07/26 07:44:33;;;;;;;4.18;2.50;;;38.60;55.40;;;;;;5071309;28;20205;-63
2021/07/26 07:47:01;;;;;;;2.88;2.30;;;38.30;55.20;;;;;;5071604;28;20220;-63
2021/07/26 07:49:28;;;;;;;3.22;2.70;;;38.00;55.50;;;;;;5071302;28;20221;-63
2021/07/26 07:51:55;;;;;;;3.95;2.80;;;38.00;55.20;;;;;;5071025;28;20220;-63
2021/07/26 07:54:23;;;;;;;4.25;2.38;;;38.00;55.00;;;;;;5070887;28;20219;-63
2021/07/26 07:56:51;;;;;;;3.95;2.50;;;38.00;54.80;;;;;;5071425;28;20233;-63
2021/07/26 07:59:18;;;;;;;5.05;2.45;;;37.60;54.80;;;;;;5071698;28;20200;-63
2021/07/26 08:01:45;;;;;;;3.58;2.30;;;37.50;55.50;;;;;;5071210;28;20291;-63
2021/07/26 08:04:12;;;;;;;4.90;2.50;;;37.50;54.50;;;;;;5070859;28;20211;-63
2021/07/26 08:06:41;;;;;;;2.88;2.45;;;38.10;54.70;;;;;;5070898;28;20229;-63
2021/07/26 08:09:08;;;;;;;4.00;2.28;;;38.60;53.40;;;;;;5071799;28;20205;-62
2021/07/26 08:11:36;;;;;;;3.75;2.60;;;39.30;52.20;;;;;;5071923;28;20212;-63
2021/07/26 08:14:02;;;;;;;2.40;2.20;;;39.60;51.80;;;;;;5071549;28;20216;-63
2021/07/26 08:16:31;;;;;;;2.95;2.40;;;39.70;51.00;;;;;;5071789;28;20247;-63
2021/07/26 08:18:58;;;;;;;2.95;2.45;;;39.90;50.80;;;;;;5071331;28;20229;-62
2021/07/26 08:21:26;;;;;;;4.00;2.38;;;40.50;49.60;;;;;;5071138;28;20204;-63
2021/07/26 08:23:53;;;;;;;3.05;2.50;;;40.80;49.30;;;;;;5071201;28;20565;-63
2021/07/26 08:26:21;;;;;;;3.95;2.90;;;41.00;48.90;;;;;;5070999;28;20228;-62
2021/07/26 08:28:49;;;;;;;3.47;2.22;;;41.30;48.40;;;;;;5071231;28;20210;-62
2021/07/26 08:31:16;;;;;;;4.88;2.22;;;41.70;46.50;;;;;;5070836;28;20251;-62
2021/07/26 08:33:42;;;;;;;2.83;1.90;;;42.00;46.70;;;;;;5071404;28;20808;-63
2021/07/26 08:36:10;;;;;;;3.53;2.38;;;42.20;46.30;;;;;;5070870;28;20235;-62
2021/07/26 08:38:37;;;;;;;3.58;2.42;;;42.40;45.90;;;;;;5070736;28;20230;-62
2021/07/26 08:41:04;;;;;;;4.20;2.47;;;42.40;45.80;;;;;;5070703;28;20201;-62
2021/07/26 08:43:31;;;;;;;4.13;2.40;;;42.40;45.90;;;;;;5070707;28;20208;-63
2021/07/26 08:45:59;;;;;;;4.60;2.40;;;42.00;46.80;;;;;;5069801;28;20224;-62
2021/07/26 08:48:27;;;;;;;3.53;2.50;;;41.40;46.60;;;;;;5071319;28;20240;-61
2021/07/26 08:50:56;;;;;;;5.03;2.20;;;40.60;47.70;;;;;;5070821;28;20634;-61
2021/07/26 08:53:24;;;;;;;5.13;2.40;;;39.60;48.20;;;;;;5070706;28;20208;-63
2021/07/26 08:55:51;;;;;;;2.85;2.30;;;38.50;49.90;;;;;;5070691;28;20286;-62
2021/07/26 08:58:18;;;;;;;6.05;2.20;;;37.80;51.10;;;;;;5070652;28;20672;-62
2021/07/26 09:00:45;;;;;;;4.38;2.70;;;37.30;51.80;;;;;;5070827;28;20201;-62
2021/07/26 09:03:13;;;;;;;3.97;2.35;;;36.70;52.90;;;;;;5070685;28;20318;-62
2021/07/26 09:05:39;;;;;;;4.55;2.40;;;35.80;53.10;;;;;;5070601;28;20278;-59
2021/07/26 09:08:06;;;;;;;3.33;2.28;;;34.90;54.10;;;;;;5070862;28;20236;-61
2021/07/26 09:10:35;;;;;;;3.78;2.10;;;33.70;56.50;;;;;;5071044;28;20220;-59
2021/07/26 09:13:03;;;;;;;6.25;2.38;;;32.70;58.40;;;;;;5070671;28;20208;-59
2021/07/26 09:15:31;;;;;;;4.22;2.50;;;32.00;59.90;;;;;;5070350;28;20680;-59
2021/07/26 09:18:00;;;;;;;3.38;1.98;;;31.50;61.50;;;;;;5070942;28;20209;-59
2021/07/26 09:20:30;;;;;;;3.05;2.70;;;30.70;63.40;;;;;;5070748;28;20196;-59
2021/07/26 09:22:58;;;;;;;3.60;2.45;;;30.00;66.00;;;;;;5070849;28;20263;-59
2021/07/26 09:25:26;;;;;;;5.68;2.67;;;29.50;67.30;;;;;;5070280;28;20231;-59
2021/07/26 09:28:01;;;;;;;5.18;2.83;;;29.40;68.30;;;;;;5070184;28;20220;-59
2021/07/26 09:30:32;;;;;;;3.05;2.53;;;29.40;68.40;;;;;;5070459;28;20672;-59
2021/07/26 09:32:59;;;;;;;3.33;2.75;;;29.40;69.00;;;;;;5070459;28;20609;-60
2021/07/26 09:35:27;;;;;;;3.42;2.38;;;29.40;69.80;;;;;;5070645;28;20739;-59
2021/07/26 09:37:58;;;;;;;3.17;2.40;;;29.30;69.80;;;;;;5071155;28;20221;-60
2021/07/26 09:40:27;;;;;;;4.68;2.45;;;29.40;70.30;;;;;;5070987;28;20208;-60
2021/07/26 09:42:54;;;;;;;3.72;2.65;;;29.40;70.90;;;;;;5070637;28;20208;-60
2021/07/26 09:45:23;;;;;;;3.88;2.30;;;29.30;71.20;;;;;;5071157;28;20233;-60
2021/07/26 09:48:05;;;;;;;4.63;2.22;;;29.20;71.90;;;;;;5070523;28;20208;-60
2021/07/26 09:50:37;;;;;;;5.90;2.80;;;29.10;72.90;;;;;;5070437;28;20646;-60
2021/07/26 09:53:12;;;;;;;3.92;2.50;;;29.00;72.20;;;;;;5070534;28;20209;-61
2021/07/26 09:55:41;;;;;;;3.88;2.88;;;29.10;73.60;;;;;;5070614;28;20588;-60
2021/07/26 09:58:10;;;;;;;2.92;2.40;;;29.30;73.00;;;;;;5073549;28;20308;-60
2021/07/26 10:00:37;;;;;;;6.20;5.60;;;29.70;70.00;;;;;;5073999;28;20208;-60
2021/07/26 10:03:07;;;;;;;2.53;2.25;;;30.10;68.70;;;;;;5073613;28;20235;-60
2021/07/26 10:05:36;;;;;;;4.88;2.40;;;30.50;66.90;;;;;;5073475;28;20224;-60
2021/07/26 10:08:04;;;;;;;4.65;3.70;;;30.80;66.50;;;;;;5073844;28;20233;-60
2021/07/26 10:10:33;;;;;;;2.78;2.20;;;30.90;66.30;;;;;;5073637;28;20228;-60
2021/07/26 10:13:00;;;;;;;3.65;2.50;;;30.90;66.10;;;;;;5073255;28;20726;-60
2021/07/26 10:15:29;;;;;;;4.72;2.65;;;30.70;66.80;;;;;;5073086;28;20232;-60
2021/07/26 10:17:55;;;;;;;5.00;2.50;;;30.60;67.00;;;;;;5073748;28;20279;-60
2021/07/26 10:20:24;;;;;;;2.95;2.40;;;30.40;68.20;;;;;;5074164;28;20208;-60
2021/07/26 10:23:01;;;;;;;4.88;2.40;;;30.00;69.30;;;;;;5073311;28;20700;-60
2021/07/26 10:25:33;;;;;;;4.25;2.47;;;29.80;70.50;;;;;;5073758;28;20235;-61
2021/07/26 10:28:03;;;;;;;4.60;2.60;;;29.70;72.00;;;;;;5072937;28;20209;-60
2021/07/26 10:30:35;;;;;;;4.28;2.63;;;29.60;71.80;;;;;;5073095;28;20216;-60
2021/07/26 10:33:02;;;;;;;4.13;2.70;;;29.60;72.20;;;;;;5073311;28;20205;-60
2021/07/26 10:35:37;;;;;;;3.35;2.05;;;29.40;72.00;;;;;;5072514;28;20240;-60
2021/07/26 10:38:06;;;;;;;2.55;2.35;;;29.40;72.00;;;;;;5073290;28;20472;-60
2021/07/26 10:40:38;;;;;;;2.90;2.03;;;29.50;71.70;;;;;;5072817;28;20205;-60
2021/07/26 10:43:06;;;;;;;2.85;2.10;;;29.70;69.20;;;;;;5073129;28;20209;-60
2021/07/26 10:46:01;;;;;;;2.55;2.20;;;30.10;69.50;;;;;;5072689;28;20236;-60
2021/07/26 10:48:50;;;;;;;2.78;2.30;;;30.30;68.10;;;;;;5063264;28;20209;-60
2021/07/26 10:51:39;;;;;;;4.38;2.22;;;30.70;68.10;;;;;;5072710;28;20209;-60
2021/07/26 10:54:09;;;;;;;3.50;2.63;;;30.80;67.50;;;;;;5072355;28;20204;-60
2021/07/26 10:57:08;;;;;;;3.47;2.40;;;31.00;67.30;;;;;;5072312;28;20229;-60
2021/07/26 11:00:12;;;;;;;2.53;2.03;;;31.30;66.40;;;;;;5072118;28;20258;-61
2021/07/26 11:02:40;;;;;;;4.93;2.30;;;31.50;65.50;;;;;;5070841;28;20197;-59
2021/07/26 11:05:32;;;;;;;2.63;2.30;;;31.70;64.90;;;;;;5072009;28;20262;-60
2021/07/26 11:08:26;;;;;;;3.13;2.30;;;32.10;65.10;;;;;;5071644;28;20304;-60
2021/07/26 11:10:57;;;;;;;5.70;2.30;;;32.60;63.30;;;;;;5072020;28;20667;-60
2021/07/26 11:13:44;;;;;;;4.80;2.28;;;32.70;62.50;;;;;;5072478;28;20228;-60
2021/07/26 11:16:11;;;;;;;5.25;2.25;;;32.60;63.10;;;;;;5072066;28;20229;-60
2021/07/26 11:18:41;;;;;;;3.13;2.67;;;32.40;62.20;;;;;;5072514;28;20201;-60
2021/07/26 11:21:09;;;;;;;3.50;2.50;;;32.40;62.80;;;;;;5072043;28;20200;-60
2021/07/26 11:23:41;;;;;;;9.48;5.03;;;32.30;63.00;;;;;;5071703;28;20220;-59
2021/07/26 11:26:19;;;;;;;3.80;2.30;;;32.20;63.40;;;;;;5071803;28;20248;-59
2021/07/26 11:28:46;;;;;;;3.80;2.30;;;31.70;64.40;;;;;;5071724;28;20269;-59
2021/07/26 11:31:20;;;;;;;3.08;2.03;;;31.50;65.60;;;;;;5072132;28;20224;-60
2021/07/26 11:33:47;;;;;;;3.42;2.10;;;31.50;65.20;;;;;;5071879;28;20311;-60
2021/07/26 11:36:14;;;;;;;2.90;2.20;;;31.70;64.30;;;;;;5071750;28;20228;-60
2021/07/26 11:39:00;;;;;;;2.67;2.15;;;31.80;63.40;;;;;;5071725;28;20213;-60
2021/07/26 11:41:28;;;;;;;3.25;2.42;;;31.80;63.70;;;;;;5071524;28;20205;-60
2021/07/26 11:43:56;;;;;;;3.92;2.55;;;31.70;64.00;;;;;;5087955;28;20209;-60
2021/07/26 11:46:24;;;;;;;4.53;2.10;;;31.80;64.30;;;;;;5091921;28;20238;-62
2021/07/26 11:48:55;;;;;;;6.07;2.17;;;31.80;64.20;;;;;;5091913;28;20208;-62
2021/07/26 11:51:30;;;;;;;2.38;2.00;;;31.50;65.20;;;;;;5091819;28;20223;-61
2021/07/26 11:54:00;;;;;;;3.00;2.30;;;31.20;65.40;;;;;;5091476;28;20211;-60
2021/07/26 11:56:29;;;;;;;4.28;2.30;;;31.00;65.70;;;;;;5091987;28;20240;-60
2021/07/26 11:59:20;;;;;;;3.80;2.25;;;30.90;67.20;;;;;;5091809;28;20729;-60
2021/07/26 12:01:53;;;;;;;2.35;2.15;;;30.80;68.30;;;;;;5091789;28;20289;-62
2021/07/26 12:04:21;;;;;;;2.50;2.30;;;30.60;68.00;;;;;;5091803;28;20295;-62
2021/07/26 12:07:06;;;;;;;3.92;2.58;;;30.40;69.20;;;;;;5091677;28;20231;-63
2021/07/26 12:09:34;;;;;;;4.60;2.47;;;30.30;68.60;;;;;;5091901;28;20741;-63
2021/07/26 12:12:13;;;;;;;3.22;2.42;;;30.30;69.00;;;;;;5091888;28;20220;-65
2021/07/26 12:14:41;;;;;;;4.82;2.50;;;30.40;70.20;;;;;;5091259;28;20212;-63
2021/07/26 12:17:12;;;;;;;2.92;2.30;;;30.60;69.90;;;;;;5091281;28;20228;-63
2021/07/26 12:19:41;;;;;;;3.22;2.65;;;30.70;69.10;;;;;;5090189;28;20672;-63
2021/07/26 12:22:19;;;;;;;5.78;2.42;;;30.80;68.80;;;;;;5090925;28;20200;-63
2021/07/26 12:24:47;;;;;;;3.10;1.88;;;30.70;69.60;;;;;;5091188;28;20593;-62
2021/07/26 12:27:27;;;;;;;9.88;1.73;;;30.10;72.60;;;;;;5090940;28;20254;-61
2021/07/26 12:29:56;;;;;;;3.78;1.73;;;29.10;75.50;;;;;;5091009;28;20208;-61
2021/07/26 12:32:22;;;;;;;3.63;1.50;;;28.30;77.90;;;;;;5090996;28;20231;-62
2021/07/26 12:35:12;;;;;;;3.85;1.77;;;27.50;80.10;;;;;;5090716;28;20214;-62
2021/07/26 12:37:39;;;;;;;3.95;1.83;;;26.90;82.40;;;;;;5090959;28;20281;-62
2021/07/26 12:40:13;;;;;;;4.03;1.70;;;26.70;87.90;;;;;;5090972;28;20684;-62
2021/07/26 12:42:42;;;;;;;6.28;1.73;;;26.70;92.60;;;;;;5091007;28;20231;-63
2021/07/26 12:45:20;;;;;;;3.97;1.70;;;26.70;93.90;;;;;;5091499;28;20213;-62
2021/07/26 12:47:47;;;;;;;10.07;1.85;;;26.60;94.20;;;;;;5091123;28;20676;-63
2021/07/26 12:50:13;;;;;;;7.35;2.40;;;26.50;95.40;;;;;;5090896;28;20208;-62
2021/07/26 12:52:40;;;;;;;5.50;1.92;;;26.70;97.40;;;;;;5090366;28;20687;-63
2021/07/26 12:55:07;;;;;;;10.63;2.28;;;26.90;96.30;;;;;;5090865;28;20208;-63